Time;durP1;ratioP1;P1;durP2;ratioP2;P2;SDS_P1;SDS_P2;PMS_P1;PMS_P2;Temp;Humidity;BMP_temperature;BMP_pressure;BME280_temperature;BME280_humidity;BME280_pressure;Samples;Min_cycle;Max_cycle;Signal;HPM_P1;HPM_P2
2021/06/12 00:01:39;;;;;;;18.20;5.60;;;;;;;16.67;60.75;101123.47;4396953;32;20598;-73
2021/06/12 00:04:05;;;;;;;11.25;5.10;;;;;;;16.64;60.76;101124.41;4397116;32;20038;-74
2021/06/12 00:06:30;;;;;;;13.75;5.07;;;;;;;16.61;60.86;101123.31;4397371;32;20101;-74
2021/06/12 00:08:56;;;;;;;9.95;4.93;;;;;;;16.56;61.16;101129.59;4397465;32;20104;-74
2021/06/12 00:11:22;;;;;;;14.95;5.53;;;;;;;16.50;61.40;101125.78;4397289;32;20068;-74
2021/06/12 00:13:47;;;;;;;11.25;5.12;;;;;;;16.45;61.68;101126.44;4397451;32;20030;-74
2021/06/12 00:16:13;;;;;;;15.13;5.68;;;;;;;16.50;61.65;101114.44;4396789;32;20050;-74
2021/06/12 00:18:39;;;;;;;16.45;5.47;;;;;;;16.45;61.97;101109.38;4396701;32;20406;-74
2021/06/12 00:21:05;;;;;;;13.30;4.75;;;;;;;16.39;62.33;101114.06;4395316;32;20103;-74
2021/06/12 00:23:31;;;;;;;12.40;4.62;;;;;;;16.41;62.21;101113.59;4398716;32;20106;-74
2021/06/12 00:25:56;;;;;;;19.08;5.25;;;;;;;16.34;62.38;101117.53;4398939;32;20034;-74
2021/06/12 00:28:22;;;;;;;19.12;4.95;;;;;;;16.26;62.83;101121.13;4399109;32;20034;-74
2021/06/12 00:30:48;;;;;;;16.25;4.82;;;;;;;16.27;62.71;101120.66;4394364;32;20074;-74
2021/06/12 00:33:15;;;;;;;16.48;5.07;;;;;;;16.30;62.56;101138.81;4397535;32;20151;-74
2021/06/12 00:35:41;;;;;;;16.62;5.65;;;;;;;16.23;62.71;101134.19;4397958;32;20050;-74
2021/06/12 00:38:09;;;;;;;15.35;5.15;;;;;;;16.12;63.16;101131.03;4398625;32;21074;-74
2021/06/12 00:40:35;;;;;;;23.00;5.85;;;;;;;16.18;63.05;101134.03;4398349;32;20148;-74
2021/06/12 00:43:01;;;;;;;17.48;5.72;;;;;;;16.01;63.69;101121.34;4396729;32;20055;-74
2021/06/12 00:45:29;;;;;;;15.02;4.87;;;;;;;16.01;63.68;101130.66;4398395;32;20080;-73
2021/06/12 00:47:55;;;;;;;22.37;5.78;;;;;;;16.04;63.54;101128.94;4397392;32;20042;-75
2021/06/12 00:50:25;;;;;;;16.30;5.15;;;;;;;16.01;63.51;101122.13;4400190;32;20402;-74
2021/06/12 00:52:51;;;;;;;18.42;5.40;;;;;;;16.04;63.61;101131.78;4402010;32;20332;-74
2021/06/12 00:55:18;;;;;;;14.73;5.12;;;;;;;15.93;63.92;101132.19;4403021;32;20035;-74
2021/06/12 00:57:44;;;;;;;13.93;4.82;;;;;;;15.99;63.83;101130.34;4400855;32;20026;-74
2021/06/12 01:00:14;;;;;;;13.23;5.25;;;;;;;16.04;63.64;101126.88;4400536;32;20620;-74
2021/06/12 01:02:40;;;;;;;14.43;4.78;;;;;;;15.96;64.05;101117.06;4399137;32;20085;-74
2021/06/12 01:05:08;;;;;;;17.65;5.55;;;;;;;15.93;64.14;101120.84;4400570;32;20038;-74
2021/06/12 01:07:34;;;;;;;14.70;5.05;;;;;;;15.93;64.11;101115.94;4400627;32;20068;-74
2021/06/12 01:10:00;;;;;;;16.33;4.95;;;;;;;15.95;64.10;101115.47;4399093;32;20073;-74
2021/06/12 01:12:38;;;;;;;14.77;5.22;;;;;;;16.00;63.98;101120.56;4399080;32;20030;-74
2021/06/12 01:15:09;;;;;;;19.52;4.80;;;;;;;16.06;63.88;101115.06;4399691;32;20484;-74
2021/06/12 01:23:33;;;;;;;17.90;5.50;;;;;;;16.69;62.39;101130.25;4441203;31;720252;-73
2021/06/12 01:31:34;;;;;;;17.85;5.47;;;;;;;16.25;63.39;101136.56;4440494;31;681818;-73
2021/06/12 01:34:03;;;;;;;16.50;5.55;;;;;;;16.04;64.09;101126.09;4456354;32;20048;-73
2021/06/12 01:36:30;;;;;;;13.93;5.15;;;;;;;15.96;64.30;101139.78;4457338;32;20064;-73
2021/06/12 01:38:59;;;;;;;14.87;4.87;;;;;;;15.89;64.49;101131.53;4456033;32;20036;-73
2021/06/12 01:41:25;;;;;;;14.85;5.18;;;;;;;15.84;64.63;101132.16;4452720;32;20102;-73
2021/06/12 01:43:54;;;;;;;11.77;4.97;;;;;;;15.84;64.52;101132.94;4454344;32;20127;-73
2021/06/12 01:46:22;;;;;;;15.30;5.22;;;;;;;15.79;64.70;101142.06;4452509;32;20357;-73
2021/06/12 01:48:49;;;;;;;12.30;5.10;;;;;;;15.80;64.48;101140.78;4454598;32;20052;-73
2021/06/12 01:51:15;;;;;;;12.43;4.87;;;;;;;15.76;64.55;101137.31;4454634;32;20077;-73
2021/06/12 01:53:42;;;;;;;16.87;5.82;;;;;;;15.71;64.70;101137.12;4455488;32;20028;-73
2021/06/12 01:56:11;;;;;;;15.23;5.30;;;;;;;15.61;64.98;101141.94;4453346;32;20115;-73
2021/06/12 01:58:41;;;;;;;19.17;5.03;;;;;;;15.60;64.86;101145.25;4451498;32;20107;-73
2021/06/12 02:01:10;;;;;;;14.50;5.32;;;;;;;15.56;65.07;101144.59;4447720;32;20493;-73
2021/06/12 02:03:38;;;;;;;19.80;6.03;;;;;;;15.58;64.93;101151.38;4439823;32;20033;-73
2021/06/12 02:06:05;;;;;;;14.85;4.93;;;;;;;15.52;65.16;101156.06;4439445;32;20041;-73
2021/06/12 02:08:33;;;;;;;18.05;5.22;;;;;;;15.51;65.33;101145.19;4440401;32;20033;-73
2021/06/12 02:10:59;;;;;;;11.23;5.05;;;;;;;15.52;65.47;101138.25;4439356;32;20045;-73
2021/06/12 02:13:26;;;;;;;18.10;5.43;;;;;;;15.54;65.61;101144.25;4438039;32;20064;-72
2021/06/12 02:15:54;;;;;;;20.20;6.20;;;;;;;15.55;65.68;101143.81;4440950;32;20034;-73
2021/06/12 02:18:24;;;;;;;19.20;6.15;;;;;;;15.54;65.91;101139.41;4440444;32;20447;-74
2021/06/12 02:20:52;;;;;;;18.12;6.78;;;;;;;15.58;66.05;101136.41;4439170;32;20049;-74
2021/06/12 02:23:18;;;;;;;21.87;6.60;;;;;;;15.58;66.13;101131.53;4438343;32;20540;-73
2021/06/12 02:25:47;;;;;;;15.48;7.05;;;;;;;15.64;65.89;101138.19;4440820;32;20068;-73
2021/06/12 02:28:16;;;;;;;14.20;5.60;;;;;;;15.67;65.96;101150.66;4439047;32;20444;-73
2021/06/12 02:30:48;;;;;;;13.95;5.68;;;;;;;15.72;65.96;101138.72;4437282;32;20058;-73
2021/06/12 02:33:16;;;;;;;12.70;4.87;;;;;;;15.74;65.84;101134.12;4438446;32;20038;-73
2021/06/12 02:35:42;;;;;;;11.48;5.75;;;;;;;15.74;65.79;101144.72;4440202;32;20109;-73
2021/06/12 02:38:08;;;;;;;15.13;5.72;;;;;;;15.73;65.82;101143.91;4436054;32;20053;-73
2021/06/12 02:40:34;;;;;;;15.55;5.35;;;;;;;15.77;65.75;101147.41;4437294;32;20107;-73
2021/06/12 02:43:00;;;;;;;14.70;6.28;;;;;;;15.71;66.22;101149.25;4427917;32;20069;-73
2021/06/12 02:45:26;;;;;;;16.95;6.43;;;;;;;15.70;66.46;101142.00;4427854;32;20096;-73
2021/06/12 02:47:57;;;;;;;16.08;6.90;;;;;;;15.62;66.86;101143.53;4427960;32;20370;-73
2021/06/12 02:50:27;;;;;;;15.00;7.32;;;;;;;15.67;67.12;101147.81;4429783;32;20514;-73
2021/06/12 02:52:57;;;;;;;20.30;7.60;;;;;;;15.61;67.36;101144.00;4430496;32;20037;-73
2021/06/12 02:55:24;;;;;;;20.27;7.47;;;;;;;15.65;67.32;101139.75;4426268;32;20081;-73
2021/06/12 02:57:52;;;;;;;21.20;8.07;;;;;;;15.63;67.60;101135.81;4429127;32;20155;-73
2021/06/12 03:00:20;;;;;;;16.80;8.10;;;;;;;15.58;67.87;101142.88;4425914;32;20064;-73
2021/06/12 03:02:48;;;;;;;20.17;8.65;;;;;;;15.50;68.50;101144.38;4427740;32;20070;-73
2021/06/12 03:05:17;;;;;;;19.83;9.38;;;;;;;15.51;68.49;101150.88;4429029;32;20077;-73
2021/06/12 03:07:47;;;;;;;22.02;8.70;;;;;;;15.43;68.87;101143.88;4427387;32;20126;-73
2021/06/12 03:10:15;;;;;;;17.10;7.47;;;;;;;15.50;68.67;101143.62;4426802;32;20086;-73
2021/06/12 03:12:42;;;;;;;17.80;7.82;;;;;;;15.39;69.30;101143.22;4426705;32;20131;-73
2021/06/12 03:15:09;;;;;;;20.80;7.97;;;;;;;15.42;69.26;101133.78;4427088;32;20034;-73
2021/06/12 03:17:36;;;;;;;19.75;8.95;;;;;;;15.47;69.07;101136.81;4429471;32;20418;-73
2021/06/12 03:20:05;;;;;;;21.65;8.60;;;;;;;15.48;69.14;101157.47;4425158;32;20729;-73
2021/06/12 03:22:33;;;;;;;15.07;8.35;;;;;;;15.55;69.06;101162.84;4429043;32;20457;-73
2021/06/12 03:25:01;;;;;;;23.00;7.93;;;;;;;15.60;69.03;101165.13;4425207;32;20457;-72
2021/06/12 03:27:27;;;;;;;20.83;7.95;;;;;;;15.67;68.89;101154.28;4427259;32;20091;-73
2021/06/12 03:29:54;;;;;;;21.15;7.55;;;;;;;15.80;68.56;101154.19;4427099;32;20112;-73
2021/06/12 03:32:20;;;;;;;15.98;7.50;;;;;;;15.91;68.23;101151.75;4426008;32;20073;-73
2021/06/12 03:34:47;;;;;;;19.58;7.18;;;;;;;15.96;67.88;101165.34;4427410;32;20057;-74
2021/06/12 03:37:13;;;;;;;19.40;7.40;;;;;;;15.91;67.89;101163.88;4430899;32;20042;-73
2021/06/12 03:39:39;;;;;;;16.90;7.70;;;;;;;16.04;67.46;101165.84;4426837;32;20095;-74
2021/06/12 03:42:06;;;;;;;19.30;6.62;;;;;;;16.00;67.77;101165.97;4430255;32;20041;-73
2021/06/12 03:44:33;;;;;;;23.73;7.12;;;;;;;16.11;67.26;101163.53;4428949;32;20491;-73
2021/06/12 03:47:00;;;;;;;18.45;7.72;;;;;;;16.14;66.98;101171.06;4427078;32;20072;-74
2021/06/12 03:49:26;;;;;;;15.57;7.65;;;;;;;16.12;67.21;101173.63;4426251;32;20070;-74
2021/06/12 03:51:52;;;;;;;22.52;7.20;;;;;;;16.15;67.02;101167.00;4427741;32;20073;-73
2021/06/12 03:54:18;;;;;;;17.80;7.47;;;;;;;16.04;67.17;101168.69;4428978;32;20041;-74
2021/06/12 03:56:47;;;;;;;18.23;7.93;;;;;;;15.98;67.25;101174.16;4427823;32;20057;-73
2021/06/12 03:59:12;;;;;;;21.98;7.30;;;;;;;15.89;67.24;101174.91;4427757;32;20492;-73
2021/06/12 04:01:38;;;;;;;14.13;7.25;;;;;;;15.80;67.12;101174.84;4426836;32;20060;-73
2021/06/12 04:04:05;;;;;;;13.60;6.97;;;;;;;15.83;67.22;101179.59;4426423;32;20130;-73
2021/06/12 04:06:31;;;;;;;21.15;7.43;;;;;;;15.89;66.84;101171.28;4424282;32;20013;-74
2021/06/12 04:08:57;;;;;;;15.27;8.02;;;;;;;15.89;67.14;101174.09;4429209;32;20077;-74
2021/06/12 04:11:23;;;;;;;18.40;7.62;;;;;;;15.83;67.26;101178.81;4425003;32;20695;-74
2021/06/12 04:13:49;;;;;;;20.55;7.43;;;;;;;15.80;67.37;101191.88;4427499;32;20140;-73
2021/06/12 04:16:15;;;;;;;18.48;6.90;;;;;;;15.83;67.35;101195.81;4428683;32;20045;-73
2021/06/12 04:18:41;;;;;;;17.90;7.57;;;;;;;15.85;67.39;101188.47;4427781;32;20390;-74
2021/06/12 04:21:07;;;;;;;15.80;7.07;;;;;;;15.87;67.39;101197.28;4425128;32;20453;-73
2021/06/12 04:23:33;;;;;;;21.30;7.75;;;;;;;15.96;67.18;101197.34;4427960;32;20052;-73
2021/06/12 04:25:59;;;;;;;13.62;7.05;;;;;;;16.12;66.81;101202.00;4428260;32;20077;-73
2021/06/12 04:28:25;;;;;;;17.50;7.28;;;;;;;16.25;66.30;101216.09;4426002;32;20397;-73
2021/06/12 04:30:50;;;;;;;23.77;8.20;;;;;;;16.36;66.27;101200.22;4426275;32;20302;-73
2021/06/12 04:33:17;;;;;;;15.77;7.60;;;;;;;16.43;65.65;101204.81;4430225;32;20354;-73
2021/06/12 04:35:43;;;;;;;17.08;8.43;;;;;;;16.63;65.23;101211.69;4427879;32;20133;-73
2021/06/12 04:38:08;;;;;;;22.55;8.27;;;;;;;16.76;64.51;101206.72;4426146;32;20069;-73
2021/06/12 04:40:35;;;;;;;22.20;8.55;;;;;;;16.89;64.36;101207.38;4425974;32;20048;-73
2021/06/12 04:43:05;;;;;;;17.15;6.70;;;;;;;17.06;63.66;101207.88;4427247;32;20042;-73
2021/06/12 04:45:31;;;;;;;21.37;7.03;;;;;;;17.22;63.25;101208.38;4427680;32;20034;-73
2021/06/12 04:47:57;;;;;;;19.77;8.40;;;;;;;17.19;63.45;101215.00;4426717;32;20041;-73
2021/06/12 04:50:23;;;;;;;17.48;8.13;;;;;;;17.35;63.05;101213.88;4427228;32;20130;-73
2021/06/12 04:52:48;;;;;;;18.70;7.35;;;;;;;17.35;63.15;101223.22;4427577;32;20078;-73
2021/06/12 04:55:14;;;;;;;17.17;7.93;;;;;;;17.53;62.48;101220.41;4426043;32;20271;-73
2021/06/12 04:57:40;;;;;;;20.55;7.68;;;;;;;17.59;62.21;101224.19;4425311;32;20076;-72
2021/06/12 05:00:11;;;;;;;17.73;7.68;;;;;;;17.57;62.38;101215.34;4427347;32;20029;-74
2021/06/12 05:02:39;;;;;;;15.60;7.72;;;;;;;17.60;62.36;101228.62;4425667;32;20038;-73
2021/06/12 05:05:07;;;;;;;17.33;7.47;;;;;;;17.50;62.49;101232.75;4426774;32;20018;-73
2021/06/12 05:07:34;;;;;;;17.42;7.28;;;;;;;17.57;61.71;101243.78;4426524;32;20042;-73
2021/06/12 05:10:00;;;;;;;17.40;7.18;;;;;;;17.51;62.00;101244.91;4427213;32;20137;-73
2021/06/12 05:12:26;;;;;;;15.30;6.60;;;;;;;17.59;62.07;101246.97;4427990;32;20105;-73
2021/06/12 05:14:55;;;;;;;14.18;6.87;;;;;;;17.60;61.88;101248.53;4424445;32;20385;-74
2021/06/12 05:17:21;;;;;;;17.27;7.28;;;;;;;17.74;61.64;101253.56;4427630;32;20462;-74
2021/06/12 05:19:47;;;;;;;17.33;8.43;;;;;;;17.89;61.09;101251.66;4427536;32;20107;-73
2021/06/12 05:22:13;;;;;;;15.35;6.65;;;;;;;17.95;60.52;101260.37;4428173;32;20037;-73
2021/06/12 05:24:40;;;;;;;11.18;5.75;;;;;;;18.27;60.04;101258.88;4425557;32;20049;-73
2021/06/12 05:27:07;;;;;;;11.82;4.65;;;;;;;18.39;58.60;101255.06;4427320;32;20398;-73
2021/06/12 05:29:34;;;;;;;12.25;4.85;;;;;;;18.47;57.74;101254.22;4426963;32;20040;-73
2021/06/12 05:32:00;;;;;;;11.73;5.12;;;;;;;18.54;57.38;101253.13;4425799;32;20073;-73
2021/06/12 05:34:26;;;;;;;8.43;4.20;;;;;;;18.58;57.25;101254.53;4425652;32;20057;-73
2021/06/12 05:36:52;;;;;;;9.13;3.90;;;;;;;18.51;56.99;101259.78;4426538;32;20033;-74
2021/06/12 05:39:17;;;;;;;8.75;3.70;;;;;;;18.46;56.46;101266.12;4426684;32;20428;-73
2021/06/12 05:41:43;;;;;;;11.98;3.80;;;;;;;18.44;57.01;101260.91;4427386;32;20074;-73
2021/06/12 05:44:09;;;;;;;8.20;3.50;;;;;;;18.33;56.40;101265.50;4426914;32;20064;-73
2021/06/12 05:46:35;;;;;;;13.80;3.22;;;;;;;18.33;56.40;101272.00;4424819;32;20037;-73
2021/06/12 05:49:00;;;;;;;13.35;3.22;;;;;;;18.14;57.12;101269.66;4424832;32;20156;-73
2021/06/12 05:51:28;;;;;;;12.07;3.22;;;;;;;18.30;56.69;101275.81;4426674;32;20037;-73
2021/06/12 05:53:54;;;;;;;9.45;3.33;;;;;;;18.27;55.84;101268.22;4427986;32;20098;-73
2021/06/12 05:56:20;;;;;;;10.50;2.97;;;;;;;18.03;56.72;101269.38;4423464;32;20046;-73
2021/06/12 05:58:46;;;;;;;6.95;2.90;;;;;;;18.11;56.04;101271.44;4424759;32;20077;-73
2021/06/12 06:01:13;;;;;;;6.32;2.75;;;;;;;18.11;55.77;101271.44;4424635;32;20374;-74
2021/06/12 06:03:39;;;;;;;7.47;2.58;;;;;;;18.10;55.88;101275.53;4426739;32;20065;-73
2021/06/12 06:06:06;;;;;;;9.05;2.53;;;;;;;18.20;55.71;101287.69;4427380;32;20077;-73
2021/06/12 06:08:33;;;;;;;6.30;2.20;;;;;;;18.33;54.30;101276.91;4426553;32;20578;-73
2021/06/12 06:10:59;;;;;;;7.50;2.45;;;;;;;18.32;54.11;101275.31;4424955;32;20453;-73
2021/06/12 06:13:25;;;;;;;7.07;2.45;;;;;;;18.39;54.23;101272.16;4425025;32;20061;-74
2021/06/12 06:15:51;;;;;;;10.20;3.03;;;;;;;18.54;53.61;101270.22;4428654;32;20165;-73
2021/06/12 06:18:17;;;;;;;8.20;2.92;;;;;;;18.68;53.01;101273.16;4431141;32;20162;-73
2021/06/12 06:20:44;;;;;;;6.93;2.33;;;;;;;18.57;53.12;101277.81;4430348;32;20587;-74
2021/06/12 06:23:10;;;;;;;6.87;2.05;;;;;;;18.68;52.91;101270.31;4429404;32;20078;-74
2021/06/12 06:25:36;;;;;;;6.50;2.67;;;;;;;18.85;52.67;101277.22;4429467;32;20493;-73
2021/06/12 06:28:03;;;;;;;7.57;2.17;;;;;;;18.86;52.15;101293.03;4428587;32;20057;-73
2021/06/12 06:30:29;;;;;;;4.53;1.95;;;;;;;19.02;51.07;101286.16;4428070;32;20050;-73
2021/06/12 06:32:54;;;;;;;6.12;1.73;;;;;;;19.03;51.09;101296.28;4428297;32;20095;-74
2021/06/12 06:35:20;;;;;;;7.03;2.20;;;;;;;19.08;49.85;101307.81;4432143;32;20053;-73
2021/06/12 06:37:47;;;;;;;4.82;2.00;;;;;;;19.22;49.41;101317.75;4429173;32;20126;-73
2021/06/12 06:40:13;;;;;;;3.90;1.95;;;;;;;19.24;49.24;101329.47;4429005;32;20041;-73
2021/06/12 06:42:41;;;;;;;5.65;1.90;;;;;;;19.20;48.97;101328.84;4427548;32;20111;-74
2021/06/12 06:45:08;;;;;;;5.20;1.60;;;;;;;19.07;49.23;101337.63;4428367;32;20166;-73
2021/06/12 06:47:34;;;;;;;6.37;1.90;;;;;;;18.80;49.64;101340.59;4428578;32;20041;-74
2021/06/12 06:50:00;;;;;;;8.75;1.87;;;;;;;18.91;49.65;101335.19;4428839;32;20067;-73
2021/06/12 06:52:28;;;;;;;8.95;1.70;;;;;;;19.13;49.05;101324.28;4428796;32;20093;-73
2021/06/12 06:54:53;;;;;;;6.75;1.90;;;;;;;19.40;48.59;101321.31;4428509;32;20072;-74
2021/06/12 06:57:19;;;;;;;9.25;2.28;;;;;;;19.66;47.91;101330.16;4430577;32;20418;-73
2021/06/12 06:59:45;;;;;;;4.20;1.45;;;;;;;19.88;47.04;101326.97;4425297;32;20478;-73
2021/06/12 07:02:10;;;;;;;7.60;1.67;;;;;;;20.08;46.63;101319.34;4425160;32;20465;-74
2021/06/12 07:04:37;;;;;;;4.35;1.58;;;;;;;20.34;45.65;101331.78;4429603;32;20029;-73
2021/06/12 07:07:04;;;;;;;5.05;1.85;;;;;;;20.62;44.50;101318.78;4427946;32;20038;-73
2021/06/12 07:09:31;;;;;;;4.20;1.37;;;;;;;20.82;43.64;101323.78;4426468;32;20351;-73
2021/06/12 07:11:59;;;;;;;7.18;1.55;;;;;;;21.15;42.69;101330.88;4427635;32;20093;-73
2021/06/12 07:14:27;;;;;;;5.70;1.62;;;;;;;21.38;42.42;101318.44;4428698;32;20056;-73
2021/06/12 07:16:53;;;;;;;5.43;1.58;;;;;;;21.43;42.27;101323.47;4429794;32;20102;-74
2021/06/12 07:19:20;;;;;;;2.87;1.02;;;;;;;21.43;41.83;101323.47;4425334;32;20078;-74
2021/06/12 07:21:46;;;;;;;5.60;1.30;;;;;;;21.30;41.45;101323.00;4427289;32;20474;-73
2021/06/12 07:24:13;;;;;;;4.95;1.58;;;;;;;21.62;41.25;101329.69;4427752;32;20512;-74
2021/06/12 07:26:39;;;;;;;6.72;1.60;;;;;;;21.45;41.67;101334.44;4427754;32;20075;-74
2021/06/12 07:29:05;;;;;;;4.78;1.50;;;;;;;21.58;41.29;101337.72;4426567;32;20041;-74
2021/06/12 07:31:31;;;;;;;8.05;1.40;;;;;;;21.82;40.70;101352.66;4428384;32;20038;-73
2021/06/12 07:33:57;;;;;;;6.75;1.37;;;;;;;22.18;39.85;101352.03;4424724;32;20042;-73
2021/06/12 07:36:23;;;;;;;4.57;1.48;;;;;;;22.19;39.91;101355.69;4429243;32;20044;-73
2021/06/12 07:38:49;;;;;;;4.43;1.37;;;;;;;21.84;40.31;101357.88;4424926;32;20099;-73
2021/06/12 07:41:14;;;;;;;5.12;1.20;;;;;;;21.55;41.16;101353.84;4430015;32;20086;-73
2021/06/12 07:43:40;;;;;;;8.43;1.60;;;;;;;21.73;40.87;101361.38;4426906;32;20065;-74
2021/06/12 07:46:06;;;;;;;6.28;1.62;;;;;;;21.88;40.83;101358.44;4427160;32;20081;-73
2021/06/12 07:48:32;;;;;;;9.07;1.80;;;;;;;22.15;40.32;101358.78;4427273;32;20118;-73
2021/06/12 07:50:57;;;;;;;4.12;1.20;;;;;;;21.98;40.24;101360.66;4425986;32;20247;-74
2021/06/12 07:53:23;;;;;;;4.32;1.42;;;;;;;22.21;40.09;101373.97;4427313;32;20075;-74
2021/06/12 07:55:49;;;;;;;4.75;2.00;;;;;;;22.47;39.17;101382.59;4427945;32;20119;-74
2021/06/12 07:58:15;;;;;;;5.25;1.60;;;;;;;22.66;39.06;101390.38;4426004;32;20439;-73
2021/06/12 08:00:41;;;;;;;4.00;1.58;;;;;;;23.11;38.03;101382.97;4427576;32;20501;-74
2021/06/12 08:03:06;;;;;;;5.53;1.83;;;;;;;22.97;37.98;101386.75;4428466;32;20078;-74
2021/06/12 08:05:33;;;;;;;6.78;1.40;;;;;;;22.72;38.47;101393.31;4426148;32;20060;-74
2021/06/12 08:07:58;;;;;;;5.37;1.85;;;;;;;22.09;39.86;101388.69;4427132;32;20046;-74
2021/06/12 08:10:24;;;;;;;6.00;1.73;;;;;;;21.80;40.31;101383.09;4424714;32;20133;-74
2021/06/12 08:12:50;;;;;;;4.80;1.62;;;;;;;21.59;41.16;101380.19;4426314;32;20126;-73
2021/06/12 08:15:16;;;;;;;7.43;1.75;;;;;;;21.16;41.80;101381.09;4429873;32;20045;-73
2021/06/12 08:17:44;;;;;;;4.85;1.67;;;;;;;20.35;43.43;101384.06;4428274;32;20125;-73
2021/06/12 08:20:10;;;;;;;4.40;1.50;;;;;;;20.07;44.21;101396.97;4425167;32;20037;-74
2021/06/12 08:22:36;;;;;;;7.20;1.75;;;;;;;19.76;45.20;101394.53;4426933;32;20030;-74
2021/06/12 08:25:04;;;;;;;3.67;1.42;;;;;;;19.74;45.32;101392.16;4427508;32;20045;-74
2021/06/12 08:27:30;;;;;;;5.62;1.60;;;;;;;20.18;44.94;101411.50;4426433;32;20203;-73
2021/06/12 08:29:55;;;;;;;10.23;2.10;;;;;;;20.37;44.22;101419.44;4421946;32;20092;-74
2021/06/12 08:32:21;;;;;;;7.22;2.03;;;;;;;20.42;44.03;101415.91;4425492;32;20042;-73
2021/06/12 08:34:47;;;;;;;10.45;2.00;;;;;;;20.43;43.60;101416.72;4427182;32;20157;-74
2021/06/12 08:37:13;;;;;;;7.95;2.17;;;;;;;20.49;43.75;101409.03;4426403;32;20048;-74
2021/06/12 08:39:39;;;;;;;7.60;2.00;;;;;;;20.68;43.53;101433.31;4426034;32;20187;-74
2021/06/12 08:42:05;;;;;;;8.30;1.92;;;;;;;20.76;42.99;101426.69;4429695;32;20049;-73
2021/06/12 08:44:33;;;;;;;5.05;1.62;;;;;;;20.70;43.07;101422.12;4425783;32;21171;-74
2021/06/12 08:46:59;;;;;;;6.12;1.95;;;;;;;20.71;43.20;101415.94;4426993;32;20106;-73
2021/06/12 08:49:25;;;;;;;8.75;2.35;;;;;;;20.52;43.38;101417.41;4427170;32;20037;-74
2021/06/12 08:51:52;;;;;;;5.72;1.70;;;;;;;20.55;43.95;101409.91;4426608;32;20062;-74
2021/06/12 08:54:21;;;;;;;8.20;1.77;;;;;;;20.83;43.02;101405.50;4426944;32;20083;-73
2021/06/12 08:56:47;;;;;;;5.10;1.48;;;;;;;21.06;42.54;101416.84;4429730;32;20128;-73
2021/06/12 08:59:14;;;;;;;10.30;1.62;;;;;;;21.18;42.31;101423.53;4425746;32;20434;-74
2021/06/12 09:01:41;;;;;;;7.68;1.80;;;;;;;21.15;42.17;101436.00;4428779;32;20081;-74
2021/06/12 09:04:07;;;;;;;6.57;2.10;;;;;;;21.08;42.20;101424.94;4428770;32;21269;-73
2021/06/12 09:06:34;;;;;;;7.37;1.80;;;;;;;21.22;42.01;101432.72;4426568;32;20475;-73
2021/06/12 09:09:00;;;;;;;5.07;1.45;;;;;;;21.09;42.55;101432.25;4426399;32;20062;-73
2021/06/12 09:11:26;;;;;;;7.53;2.17;;;;;;;21.47;41.97;101440.66;4425105;32;20064;-73
2021/06/12 09:13:54;;;;;;;5.25;1.95;;;;;;;21.86;41.29;101455.59;4426373;32;20077;-74
2021/06/12 09:19:04;;;;;;;12.07;2.92;;;;;;;22.57;40.53;101450.00;4420617;31;986352;-74
2021/06/12 09:21:34;;;;;;;4.82;1.70;;;;;;;22.57;40.53;101450.00;4450448;32;20085;-73
2021/06/12 09:24:01;;;;;;;6.15;1.80;;;;;;;22.89;39.55;101463.16;4445891;32;20056;-74
2021/06/12 09:26:48;;;;;;;6.85;2.03;;;;;;;23.11;38.41;101446.13;4452023;32;20080;-74
2021/06/12 09:29:18;;;;;;;7.43;2.03;;;;;;;23.57;37.13;101457.47;4448114;32;20092;-73
2021/06/12 09:31:49;;;;;;;5.00;1.58;;;;;;;23.33;38.00;101461.50;4448286;32;20032;-74
2021/06/12 09:34:19;;;;;;;7.47;2.10;;;;;;;23.01;38.54;101462.72;4451690;32;20392;-74
2021/06/12 09:36:46;;;;;;;5.15;2.10;;;;;;;22.98;38.86;101465.84;4452594;32;20075;-74
2021/06/12 09:41:54;;;;;;;8.85;1.92;;;;;;;23.09;39.07;101472.47;4407375;32;727025;-73
2021/06/12 09:47:23;;;;;;;9.07;2.15;;;;;;;23.63;38.15;101473.47;4437643;31;702962;-74
2021/06/12 09:49:50;;;;;;;7.05;1.60;;;;;;;23.63;38.15;101473.47;4449828;32;20108;-74
2021/06/12 09:52:19;;;;;;;6.03;1.50;;;;;;;23.37;38.44;101470.66;4453094;32;20067;-74
2021/06/12 09:54:47;;;;;;;6.68;1.77;;;;;;;23.27;38.06;101468.47;4452366;32;20071;-73
2021/06/12 09:57:16;;;;;;;4.50;1.55;;;;;;;23.06;38.02;101472.69;4450669;32;20063;-74
2021/06/12 10:02:45;;;;;;;6.25;1.70;;;;;;;22.56;38.67;101459.91;4405062;32;722393;-73
2021/06/12 10:05:13;;;;;;;5.75;1.45;;;;;;;22.56;38.67;101459.91;4429016;32;20126;-73
2021/06/12 10:07:40;;;;;;;7.28;1.80;;;;;;;22.31;39.08;101460.63;4420568;32;20117;-73
2021/06/12 10:10:09;;;;;;;11.00;1.90;;;;;;;22.14;39.45;101460.41;4428251;32;20095;-73
2021/06/12 10:12:35;;;;;;;4.93;1.10;;;;;;;22.58;39.01;101451.59;4424980;32;20084;-73
2021/06/12 10:15:03;;;;;;;4.65;1.40;;;;;;;22.45;38.65;101454.81;4425242;32;20041;-73
2021/06/12 10:17:32;;;;;;;3.87;1.17;;;;;;;22.31;38.56;101449.97;4431015;32;20072;-73
2021/06/12 10:19:58;;;;;;;5.68;1.50;;;;;;;22.68;38.12;101453.00;4422485;32;20061;-73
2021/06/12 10:22:24;;;;;;;6.53;1.67;;;;;;;22.59;37.86;101462.56;4422786;32;20073;-73
2021/06/12 10:24:51;;;;;;;6.57;1.40;;;;;;;22.95;36.80;101455.38;4427898;32;20073;-73
2021/06/12 10:27:17;;;;;;;3.67;1.58;;;;;;;22.72;37.42;101453.56;4412132;32;20030;-74
2021/06/12 10:29:45;;;;;;;5.03;1.55;;;;;;;22.94;37.05;101463.19;4429835;32;20080;-73
2021/06/12 10:32:13;;;;;;;2.28;0.95;;;;;;;22.69;37.21;101463.97;4424904;32;20442;-73
2021/06/12 10:34:40;;;;;;;7.22;1.52;;;;;;;22.72;36.64;101470.78;4422972;32;20627;-73
2021/06/12 10:37:08;;;;;;;5.25;1.23;;;;;;;22.62;36.90;101472.25;4411087;32;20038;-73
2021/06/12 10:39:37;;;;;;;5.47;1.70;;;;;;;22.98;36.53;101483.84;4424720;32;20207;-74
2021/06/12 10:42:14;;;;;;;4.35;1.50;;;;;;;23.42;35.86;101469.12;4422011;32;20109;-74
2021/06/12 10:44:43;;;;;;;5.62;1.20;;;;;;;24.18;34.87;101476.72;4422664;32;20064;-74
2021/06/12 10:47:09;;;;;;;7.32;1.50;;;;;;;24.36;34.07;101482.00;4421198;32;20021;-74
2021/06/12 10:49:36;;;;;;;8.20;1.40;;;;;;;24.73;33.94;101473.28;4425057;32;20099;-74
2021/06/12 10:52:04;;;;;;;9.18;1.48;;;;;;;24.82;32.83;101482.44;4408457;32;20554;-73
2021/06/12 10:54:35;;;;;;;7.35;1.60;;;;;;;24.64;32.66;101479.25;4424477;32;20140;-74
2021/06/12 10:57:17;;;;;;;5.30;1.20;;;;;;;24.92;32.51;101478.03;4430448;32;20054;-75
2021/06/12 10:59:47;;;;;;;6.80;1.70;;;;;;;25.67;31.42;101482.03;4421850;32;20460;-74
2021/06/12 11:12:48;;;;;;;6.40;1.92;;;;;;;26.61;30.38;101485.41;4444670;31;678367;-74
2021/06/12 11:21:06;;;;;;;7.20;1.50;;;;;;;26.82;29.83;101495.28;4442023;31;683531;-73
2021/06/12 11:23:53;;;;;;;4.82;1.50;;;;;;;26.82;29.83;101495.28;4447087;32;20095;-74
2021/06/12 11:26:20;;;;;;;5.00;1.65;;;;;;;26.41;30.31;101474.19;4447686;32;20033;-74
2021/06/12 11:28:48;;;;;;;3.20;1.33;;;;;;;26.82;29.72;101487.41;4448494;32;20100;-74
2021/06/12 11:31:26;;;;;;;7.03;1.62;;;;;;;26.82;29.74;101486.62;4449977;32;20041;-74
2021/06/12 11:34:13;;;;;;;6.60;1.87;;;;;;;26.85;28.60;101492.09;4443444;32;20422;-74
2021/06/12 11:36:39;;;;;;;6.40;1.75;;;;;;;27.13;28.53;101486.94;4447442;32;20438;-74
2021/06/12 11:39:06;;;;;;;5.03;1.50;;;;;;;27.51;28.30;101490.87;4448483;32;20075;-74
2021/06/12 11:41:32;;;;;;;6.57;1.58;;;;;;;27.00;29.10;101474.44;4446648;32;20041;-73
2021/06/12 11:44:00;;;;;;;4.20;1.50;;;;;;;26.50;30.28;101474.69;4450654;32;20116;-74
2021/06/12 11:49:07;;;;;;;5.32;1.90;;;;;;;27.12;29.37;101481.72;4444008;31;684509;-74
2021/06/12 11:51:36;;;;;;;10.43;1.90;;;;;;;27.12;29.37;101481.72;4447385;32;20093;-74
2021/06/12 11:54:21;;;;;;;8.30;1.98;;;;;;;26.17;30.52;101480.59;4457450;32;20530;-74
2021/06/12 11:56:54;;;;;;;4.03;1.90;;;;;;;26.55;29.96;101473.09;4456583;32;20084;-74
2021/06/12 11:59:23;;;;;;;6.78;2.05;;;;;;;26.49;30.17;101481.78;4451689;32;20882;-74
2021/06/12 12:01:57;;;;;;;10.55;2.00;;;;;;;26.63;29.93;101480.69;4444531;32;20634;-74
2021/06/12 12:04:24;;;;;;;5.30;1.65;;;;;;;26.68;29.95;101491.44;4434207;32;20347;-74